Fort Collins, CO (80521)

1:54 PM MDT on July 29, 2016 (GMT -0600)
Taft Hill and Mulberry | | Change Station
Active Advisory: Severe Thunderstorm Watch

Elev 5092 ft 40.58 °N, 105.12 °W | Updated 8 seconds ago

Scattered Clouds
Scattered Clouds
86.4 °F
Feels Like 86 °F
N
6.0
Wind Variable Wind from East
Gusts 8.3 mph

Today
High -- | Low -- °F
--% Chance of Precip.
Yesterday
High -- | Low -- °F
Precip. -- in
Pressure 30.15 in
Visibility 10.0 miles
Clouds Few 4200 ft
Scattered Clouds 5000 ft
Heat Index 86 °F
Dew Point 61 °F
Humidity 42%
Rainfall in
Snow Depth Not available.
5:55 AM 8:18 PM
Waning Crescent, 19% visible
METAR KFNL 291935Z AUTO 15010KT 10SM FEW042 SCT050 28/15 A3015 RMK AO1
Pressure 30.15 in
Visibility 10.0 miles
Clouds Few 4200 ft
Scattered Clouds 5000 ft
Heat Index 86 °F
Dew Point 61 °F
Humidity 42%
Rainfall in
Snow Depth Not available.
5:55 AM 8:18 PM
Waning Crescent, 19% visible
METAR KFNL 291935Z AUTO 15010KT 10SM FEW042 SCT050 28/15 A3015 RMK AO1

10-Day Weather Forecast

Almanac

Astronomy

Jul. 29, 2016 Rise Set
Actual Time
Civil Twilight
Nautical Twilight
Astronomical Twilight
Moon
Length of Visible Light
Length of Day
Tomorrow will be .
, % of the Moon is Illuminated

Today's Extremes

State Highs State Lows

Community

WunderPhotos

Upload Photos

1,928,401 photos uploaded!

WunderBlog® & News

Nearby

Air Quality

  Air Quality AQ Index Pollutant
Not available.

Snow Depth

Station Depth Elevation

Earthquake Activity

City Distance Mag. Time & Date
Minimum magnitude displayed is 2.5.

Coastal Water Temperatures

Place Temperature

Stations

Nearby Weather Stations

Station Location Temp. Windchill Dew Point Humidity Wind Precip. Elev Updated Type
                   

Watches & Warnings

Severe Thunderstorm Watch
Issued: 1:43 PM MDT Jul. 29, 2016 – National Weather Service

Severe Thunderstorm Watch 422 remains in effect until 1000 PM MDT
for the following locations


Co
. Colorado counties included are

Adams Arapahoe Boulder
Broomfield Denver Douglas
Elbert El Paso Jefferson
Larimer Lincoln Morgan
Washington Weld